| ID | Date/Heure | Temp (Β°C) | HumiditΓ© (%) | Pression (hPa) | Tendance | LuminositΓ© (lux) | Situation |
|---|---|---|---|---|---|---|---|
| 6198 | 17/04/2026 08:15 | 16.3 | 72.0 | 1,018.4 | β Stable | 52,224 | pluvieux-gris (approx.) |
| 6197 | 17/04/2026 07:45 | 15.1 | 71.0 | 1,018.7 | β Stable | 42,960 | pluvieux-gris |
| 6196 | 17/04/2026 07:15 | 13.4 | 70.0 | 1,018.7 | β Stable | 29,628 | pluvieux-gris |
| 6195 | 17/04/2026 06:45 | 12.5 | 73.0 | 1,018.3 | β Stable | 20,736 | pluvieux-gris |
| 6194 | 17/04/2026 06:15 | 11.1 | 78.0 | 1,018.3 | β Stable | 9,348 | pluvieux-gris |
| 6193 | 17/04/2026 05:45 | 10.5 | 80.0 | 1,018.3 | β Stable | 3,144 | pluvieux-gris |
| 6192 | 17/04/2026 05:15 | 10.8 | 77.0 | 1,018.3 | β Stable | 0 | pluvieux-gris |
| 6191 | 17/04/2026 04:45 | 11.2 | 75.0 | 1,018.4 | β Stable | 0 | pluvieux-gris |
| 6190 | 17/04/2026 04:15 | 11.8 | 72.0 | 1,018.4 | β Stable | 0 | pluvieux-gris |
| 6189 | 17/04/2026 03:45 | 12.3 | 70.0 | 1,018.3 | β Stable | 0 | pluvieux-gris |
| 6188 | 17/04/2026 03:15 | 12.5 | 71.0 | 1,018.3 | β Stable | 0 | pluvieux-gris |
| 6187 | 17/04/2026 02:45 | 12.7 | 69.0 | 1,018.1 | β Stable | 0 | frais-stable |
| 6186 | 17/04/2026 02:30 | 13.7 | 66.0 | 1,018.1 | β Stable | 0 | frais-stable |
| 6185 | 17/04/2026 02:15 | 13.9 | 65.0 | 1,018.1 | β Stable | 0 | frais-stable |
| 6184 | 17/04/2026 01:45 | 14.3 | 64.0 | 1,018.1 | β Stable | 0 | frais-stable |
| 6183 | 17/04/2026 01:30 | 13.9 | 66.0 | 1,018.1 | β Stable | 0 | frais-stable |
| 6182 | 17/04/2026 01:15 | 14.0 | 66.0 | 1,018.1 | β Stable | 0 | frais-stable |
| 6181 | 17/04/2026 00:45 | 14.3 | 65.0 | 1,018.2 | β Stable | 0 | frais-stable |
| 6180 | 17/04/2026 00:30 | 14.8 | 62.0 | 1,018.2 | β Stable | 0 | frais-stable |
| 6179 | 17/04/2026 00:15 | 15.1 | 61.0 | 1,018.2 | β Stable | 0 | frais-stable |
| 6178 | 16/04/2026 23:45 | 15.3 | 62.0 | 1,018.3 | β Stable | 0 | frais-stable |
| 6177 | 16/04/2026 23:30 | 15.6 | 59.0 | 1,018.3 | β Stable | 0 | frais-stable |
| 6176 | 16/04/2026 23:15 | 15.9 | 58.0 | 1,018.3 | β Stable | 0 | frais-stable |
| 6175 | 16/04/2026 22:45 | 16.2 | 57.0 | 1,018.5 | β Stable | 0 | frais-stable |
| 6174 | 16/04/2026 22:30 | 17.5 | 54.0 | 1,018.5 | β Stable | 0 | frais-stable |
| 6173 | 16/04/2026 22:15 | 17.6 | 53.0 | 1,018.5 | β Stable | 0 | frais-stable |
| 6172 | 16/04/2026 21:45 | 17.8 | 53.0 | 1,018.4 | β Stable | 0 | frais-stable |
| 6171 | 16/04/2026 21:30 | 18.2 | 52.0 | 1,018.4 | β Stable | 0 | frais-stable |
| 6170 | 16/04/2026 21:15 | 18.3 | 52.0 | 1,018.4 | β Stable | 0 | frais-stable |
| 6169 | 16/04/2026 20:45 | 18.4 | 50.0 | 1,018.2 | β Stable | 0 | frais-stable |
| 6168 | 16/04/2026 20:30 | 18.7 | 49.0 | 1,018.2 | β Stable | 0 | frais-stable |
| 6167 | 16/04/2026 20:15 | 18.8 | 49.0 | 1,018.2 | β Stable | 0 | frais-stable |
| 6166 | 16/04/2026 19:45 | 18.9 | 49.0 | 1,017.5 | β Stable | 0 | frais-stable |
| 6165 | 16/04/2026 19:30 | 19.6 | 46.0 | 1,017.5 | β Stable | 0 | frais-stable |
| 6164 | 16/04/2026 19:15 | 19.8 | 46.0 | 1,017.5 | β Stable | 0 | frais-stable |
| 6163 | 16/04/2026 18:45 | 20.4 | 43.0 | 1,017.9 | β Stable | 1,296 | frais-stable |
| 6162 | 16/04/2026 18:30 | 20.9 | 43.0 | 1,017.9 | β Stable | 5,088 | frais-stable |
| 6161 | 16/04/2026 18:15 | 21.3 | 41.0 | 1,017.9 | β Stable | 9,540 | frais-stable |
| 6160 | 16/04/2026 17:45 | 21.9 | 40.0 | 1,018.0 | β Stable | 18,420 | frais-stable |
| 6159 | 16/04/2026 17:30 | 22.1 | 39.0 | 1,018.0 | β Stable | 23,976 | conditions-neutrales-ou-non-definies |
| 6158 | 16/04/2026 17:15 | 22.3 | 39.0 | 1,018.0 | β Stable | 29,532 | conditions-neutrales-ou-non-definies |
| 6157 | 16/04/2026 16:45 | 22.5 | 39.0 | 1,018.2 | β Stable | 39,348 | conditions-neutrales-ou-non-definies |
| 6156 | 16/04/2026 16:15 | 22.7 | 39.0 | 1,018.2 | β Stable | 42,504 | conditions-neutrales-ou-non-definies |
| 6155 | 16/04/2026 15:45 | 22.6 | 40.0 | 1,018.5 | β Stable | 48,888 | frais-stable |
| 6154 | 16/04/2026 15:15 | 22.1 | 42.0 | 1,018.5 | β Stable | 33,792 | frais-stable |
| 6153 | 16/04/2026 14:45 | 22.2 | 42.0 | 1,019.0 | β Stable | 31,764 | frais-stable |
| 6152 | 16/04/2026 14:15 | 21.6 | 45.0 | 1,019.0 | β Stable | 42,960 | frais-stable |
| 6151 | 16/04/2026 13:45 | 21.7 | 45.0 | 1,019.5 | β Stable | 46,572 | frais-stable |
| 6150 | 16/04/2026 13:15 | 21.4 | 46.0 | 1,019.7 | β Stable | 79,812 | frais-stable |
| 6149 | 16/04/2026 12:45 | 21.1 | 46.0 | 1,020.3 | β Stable | 82,680 | frais-stable |
| 6148 | 16/04/2026 12:15 | 21.0 | 49.0 | 1,020.3 | β Stable | 97,032 | frais-stable |
| 6147 | 16/04/2026 11:45 | 20.5 | 53.0 | 1,021.0 | β Stable | 97,872 | frais-stable |
| 6146 | 16/04/2026 11:15 | 19.9 | 57.0 | 1,021.0 | β Stable | 95,832 | frais-stable |
| 6145 | 16/04/2026 10:45 | 18.9 | 63.0 | 1,021.9 | β Stable | 92,772 | frais-stable |
| 6144 | 16/04/2026 10:15 | 16.8 | 73.0 | 1,021.9 | β Stable | 37,872 | pluvieux-gris (approx.) |
| 6143 | 16/04/2026 09:45 | 15.9 | 76.0 | 1,022.1 | β Stable | 32,964 | pluvieux-gris |
| 6142 | 16/04/2026 09:15 | 14.3 | 83.0 | 1,022.1 | β Stable | 25,920 | pluvieux-gris |
| 6141 | 16/04/2026 08:45 | 13.7 | 84.0 | 1,022.2 | β Stable | 22,032 | pluvieux-gris |
| 6140 | 16/04/2026 08:15 | 12.4 | 91.0 | 1,022.2 | β Stable | 24,348 | pluvieux-gris |
| 6139 | 16/04/2026 07:45 | 11.9 | 92.0 | 1,022.0 | β Stable | 19,908 | pluvieux-gris |
| 6138 | 16/04/2026 07:15 | 9.9 | 96.0 | 1,022.0 | β Stable | 16,296 | pluvieux-gris |
| 6137 | 16/04/2026 06:45 | 9.5 | 98.0 | 1,021.9 | β Stable | 11,112 | pluvieux-gris |
| 6136 | 16/04/2026 06:15 | 9.1 | 98.0 | 1,021.9 | β Stable | 2,772 | pluvieux-gris |
| 6135 | 16/04/2026 05:45 | 9.1 | 99.0 | 1,021.7 | β Stable | 828 | pluvieux-gris |
| 6134 | 16/04/2026 05:15 | 9.9 | 100.0 | 1,021.7 | β Stable | 0 | pluvieux-gris |
| 6133 | 16/04/2026 04:45 | 9.6 | 99.0 | 1,021.9 | β Stable | 0 | pluvieux-gris |
| 6132 | 16/04/2026 04:15 | 9.6 | 100.0 | 1,021.9 | β Stable | 0 | pluvieux-gris |
| 6131 | 16/04/2026 03:45 | 9.6 | 100.0 | 1,022.2 | β Stable | 0 | pluvieux-gris |
| 6130 | 16/04/2026 03:15 | 9.8 | 100.0 | 1,022.2 | β Stable | 0 | pluvieux-gris |
| 6129 | 16/04/2026 02:45 | 9.7 | 94.0 | 1,021.9 | β Stable | 0 | pluvieux-gris |
| 6128 | 16/04/2026 02:30 | 9.3 | 96.0 | 1,021.9 | β Stable | 0 | pluvieux-gris |
| 6127 | 16/04/2026 02:15 | 9.3 | 93.0 | 1,021.9 | β Stable | 0 | pluvieux-gris |
| 6126 | 16/04/2026 01:45 | 9.6 | 93.0 | 1,022.1 | β Stable | 0 | pluvieux-gris |
| 6125 | 16/04/2026 01:30 | 9.9 | 93.0 | 1,022.1 | β Stable | 0 | pluvieux-gris |
| 6124 | 16/04/2026 01:15 | 9.9 | 93.0 | 1,022.0 | β Stable | 0 | pluvieux-gris |
| 6123 | 16/04/2026 00:45 | 10.3 | 92.0 | 1,022.2 | β Stable | 0 | pluvieux-gris |
| 6122 | 16/04/2026 00:30 | 10.4 | 92.0 | 1,022.2 | β Stable | 0 | pluvieux-gris |
| 6121 | 16/04/2026 00:15 | 10.5 | 92.0 | 1,022.2 | β Stable | 0 | pluvieux-gris |
| 6120 | 15/04/2026 23:45 | 10.7 | 91.0 | 1,022.0 | β Stable | 0 | pluvieux-gris |
| 6119 | 15/04/2026 23:30 | 11.0 | 89.0 | 1,022.0 | β Stable | 0 | pluvieux-gris |
| 6118 | 15/04/2026 23:15 | 11.1 | 89.0 | 1,022.0 | β Stable | 0 | pluvieux-gris |
| 6117 | 15/04/2026 22:45 | 11.4 | 89.0 | 1,022.2 | β Stable | 0 | pluvieux-gris |
| 6116 | 15/04/2026 22:30 | 11.8 | 87.0 | 1,022.2 | β Stable | 0 | pluvieux-gris |
| 6115 | 15/04/2026 22:15 | 12.0 | 87.0 | 1,022.2 | β Stable | 0 | pluvieux-gris |
| 6114 | 15/04/2026 21:45 | 12.5 | 85.0 | 1,022.2 | β Stable | 0 | pluvieux-gris |
| 6113 | 15/04/2026 21:30 | 13.0 | 86.0 | 1,022.2 | β Stable | 0 | pluvieux-gris |
| 6112 | 15/04/2026 21:15 | 13.3 | 85.0 | 1,022.2 | β Stable | 0 | pluvieux-gris |
| 6111 | 15/04/2026 20:45 | 13.8 | 82.0 | 1,021.9 | β Stable | 0 | pluvieux-gris |
| 6110 | 15/04/2026 20:30 | 14.3 | 83.0 | 1,021.9 | β Stable | 0 | pluvieux-gris |
| 6109 | 15/04/2026 20:15 | 14.6 | 82.0 | 1,021.9 | β Stable | 0 | pluvieux-gris |
| 6108 | 15/04/2026 19:45 | 15.1 | 80.0 | 1,021.1 | β Stable | 0 | pluvieux-gris |
| 6107 | 15/04/2026 19:30 | 15.6 | 74.0 | 1,021.1 | β Stable | 0 | pluvieux-gris |
| 6106 | 15/04/2026 19:15 | 16.0 | 73.0 | 1,021.1 | β Stable | 0 | pluvieux-gris |
| 6105 | 15/04/2026 18:45 | 16.6 | 70.0 | 1,020.7 | β Stable | 1,020 | pluvieux-gris (approx.) |
| 6104 | 15/04/2026 18:30 | 17.6 | 67.0 | 1,020.7 | β Stable | 3,336 | frais-stable |
| 6103 | 15/04/2026 18:15 | 17.9 | 66.0 | 1,020.7 | β Stable | 6,108 | frais-stable |
| 6102 | 15/04/2026 17:45 | 18.6 | 64.0 | 1,020.1 | β Stable | 11,580 | frais-stable |
| 6101 | 15/04/2026 17:30 | 19.0 | 62.0 | 1,020.1 | β Stable | 16,116 | frais-stable |
| 6100 | 15/04/2026 17:15 | 19.4 | 61.0 | 1,020.1 | β Stable | 18,612 | frais-stable |
| 6099 | 15/04/2026 16:45 | 19.9 | 60.0 | 1,019.7 | β Stable | 23,796 | frais-stable |